Airfield :
LOGIN :

Register | Disclaimer

   EN    FR    IT 

 










Legend :    VFR   Marginal VFR   IFR   Intensive IFR   Very Intensive IFR
Visi :
Ceiling :
>= 8 km
>= 3000ft
5 to 8 km
1000 to 3000 ft
1500m to 5 km
500 to 1000 ft
800 to 1500m
200 to 500 ft
< 800m
< 200 ft
Symbols :   Thunderstorms  Fog  Heavy snow  Heavy precipitations  Wind > 20 kt
SIGMETs :     Misc.  Thunderstorms  Icing  Turbulence  Mountain Waves  Volcanic Ashes






- Airport Elevation : 499 ft
- IATA code : TLS


LFBO - Toulouse / Blagnac

CURRENT METAR :
  • 070230Z AUTO 14006KT CAVOK 23/09 Q1015 NOSIG

EXPIRED METARs :
  • 070200Z AUTO 12007KT CAVOK 23/09 Q1015 NOSIG
  • 070130Z AUTO 12006KT CAVOK 24/09 Q1015 NOSIG
  • 070100Z AUTO 13009KT CAVOK 24/09 Q1015 NOSIG
  • 070030Z AUTO 12010KT CAVOK 25/09 Q1016 NOSIG
  • 070000Z AUTO 13008KT CAVOK 26/09 Q1016 NOSIG

TAF TAF LFBO
Valid from the 07 at 00:00 until the 08 at 06:00 UTC


062300Z 0700/0806 VRB03KT CAVOK
BECMG 0705/0707 14010KT
BECMG 0713/0715 VRB03KT
BECMG 0720/0722 27010KT
PROB30
TEMPO 0720/0723 28016G26KT
ATIS : +33 5 62 74 66 36



MET'MAP, your aeronautical weather chart ! - Copyright ORBIFLY December 2007 - Disclaimer

ORBIFLY MET'MAP TEAM :

Programming & Development : Alexandra Zaïnal
Concept & original design : Baudouin d'Aumeries
Assistance for programming : Marc-Olivier Méhu
Technical & hardware support : Manuel Goepfert

Contact : metmap@orbifly.com




SOURCES & CREDITS :

   NOAA